sensor_id;sensor_type;location;lat;lon;timestamp;temperature;humidity
792;DHT22;379;49.022;12.148;2023-10-08T00:02:23;13.90;99.90
792;DHT22;379;49.022;12.148;2023-10-08T00:04:52;13.80;99.90
792;DHT22;379;49.022;12.148;2023-10-08T00:07:20;13.80;99.90
792;DHT22;379;49.022;12.148;2023-10-08T00:09:48;13.80;99.90
792;DHT22;379;49.022;12.148;2023-10-08T00:12:16;13.80;99.90
792;DHT22;379;49.022;12.148;2023-10-08T00:14:45;13.80;99.90
792;DHT22;379;49.022;12.148;2023-10-08T00:17:15;13.80;99.90
792;DHT22;379;49.022;12.148;2023-10-08T00:19:42;13.70;99.90
792;DHT22;379;49.022;12.148;2023-10-08T00:22:10;13.70;99.90
792;DHT22;379;49.022;12.148;2023-10-08T00:24:38;13.70;99.90
792;DHT22;379;49.022;12.148;2023-10-08T00:27:07;13.70;99.90
792;DHT22;379;49.022;12.148;2023-10-08T00:29:34;13.70;99.90
792;DHT22;379;49.022;12.148;2023-10-08T00:32:06;13.70;99.90
792;DHT22;379;49.022;12.148;2023-10-08T00:34:38;13.60;99.90
792;DHT22;379;49.022;12.148;2023-10-08T00:37:07;13.60;99.90
792;DHT22;379;49.022;12.148;2023-10-08T00:39:36;13.60;99.90
792;DHT22;379;49.022;12.148;2023-10-08T00:42:06;13.70;99.90
792;DHT22;379;49.022;12.148;2023-10-08T00:44:34;13.70;99.90
792;DHT22;379;49.022;12.148;2023-10-08T00:47:08;13.70;99.90
792;DHT22;379;49.022;12.148;2023-10-08T00:49:37;13.70;99.90
792;DHT22;379;49.022;12.148;2023-10-08T00:52:20;13.70;99.90
792;DHT22;379;49.022;12.148;2023-10-08T00:54:55;13.70;99.90
792;DHT22;379;49.022;12.148;2023-10-08T00:57:35;13.80;99.90
792;DHT22;379;49.022;12.148;2023-10-08T01:00:03;13.80;99.90
792;DHT22;379;49.022;12.148;2023-10-08T01:02:39;13.70;99.90
792;DHT22;379;49.022;12.148;2023-10-08T01:05:12;13.70;99.90
792;DHT22;379;49.022;12.148;2023-10-08T01:07:44;13.70;99.90
792;DHT22;379;49.022;12.148;2023-10-08T01:10:14;13.70;99.90
792;DHT22;379;49.022;12.148;2023-10-08T01:12:45;13.70;99.90
792;DHT22;379;49.022;12.148;2023-10-08T01:15:21;13.70;99.90
792;DHT22;379;49.022;12.148;2023-10-08T01:17:55;13.70;99.90
792;DHT22;379;49.022;12.148;2023-10-08T01:20:26;13.70;99.90
792;DHT22;379;49.022;12.148;2023-10-08T01:23:01;13.60;99.90
792;DHT22;379;49.022;12.148;2023-10-08T01:25:36;13.60;99.90
792;DHT22;379;49.022;12.148;2023-10-08T01:28:05;13.60;99.90
792;DHT22;379;49.022;12.148;2023-10-08T01:30:41;13.50;99.90
792;DHT22;379;49.022;12.148;2023-10-08T01:33:12;13.50;99.90
792;DHT22;379;49.022;12.148;2023-10-08T01:35:40;13.40;99.90
792;DHT22;379;49.022;12.148;2023-10-08T01:38:08;13.40;99.90
792;DHT22;379;49.022;12.148;2023-10-08T01:40:39;13.40;99.90
792;DHT22;379;49.022;12.148;2023-10-08T01:43:06;13.30;99.90
792;DHT22;379;49.022;12.148;2023-10-08T01:45:36;13.30;99.90
792;DHT22;379;49.022;12.148;2023-10-08T01:48:06;13.30;99.90
792;DHT22;379;49.022;12.148;2023-10-08T01:50:35;13.30;99.90
792;DHT22;379;49.022;12.148;2023-10-08T01:53:02;13.30;99.90
792;DHT22;379;49.022;12.148;2023-10-08T01:55:33;13.30;99.90
792;DHT22;379;49.022;12.148;2023-10-08T01:58:12;13.20;99.90
792;DHT22;379;49.022;12.148;2023-10-08T02:00:42;13.20;99.90
792;DHT22;379;49.022;12.148;2023-10-08T02:03:11;13.20;99.90
792;DHT22;379;49.022;12.148;2023-10-08T02:05:39;13.20;99.90
792;DHT22;379;49.022;12.148;2023-10-08T02:08:07;13.20;99.90
792;DHT22;379;49.022;12.148;2023-10-08T02:10:36;13.20;99.90
792;DHT22;379;49.022;12.148;2023-10-08T02:13:04;13.20;99.90
792;DHT22;379;49.022;12.148;2023-10-08T02:15:31;13.20;99.90
792;DHT22;379;49.022;12.148;2023-10-08T02:17:58;13.10;99.90
792;DHT22;379;49.022;12.148;2023-10-08T02:20:25;13.10;99.90
792;DHT22;379;49.022;12.148;2023-10-08T02:22:53;13.10;99.90
792;DHT22;379;49.022;12.148;2023-10-08T02:25:19;13.10;99.90
792;DHT22;379;49.022;12.148;2023-10-08T02:27:47;13.10;99.90
792;DHT22;379;49.022;12.148;2023-10-08T02:30:14;13.10;99.90
792;DHT22;379;49.022;12.148;2023-10-08T02:32:43;13.10;99.90
792;DHT22;379;49.022;12.148;2023-10-08T02:35:10;13.10;99.90
792;DHT22;379;49.022;12.148;2023-10-08T02:37:38;13.10;99.90
792;DHT22;379;49.022;12.148;2023-10-08T02:40:07;13.10;99.90
792;DHT22;379;49.022;12.148;2023-10-08T02:42:43;13.10;99.90
792;DHT22;379;49.022;12.148;2023-10-08T02:45:11;13.10;99.90
792;DHT22;379;49.022;12.148;2023-10-08T02:47:41;13.10;99.90
792;DHT22;379;49.022;12.148;2023-10-08T02:50:10;13.20;99.90
792;DHT22;379;49.022;12.148;2023-10-08T02:52:42;13.20;99.90
792;DHT22;379;49.022;12.148;2023-10-08T02:55:10;13.20;99.90
792;DHT22;379;49.022;12.148;2023-10-08T02:57:49;13.20;99.90
792;DHT22;379;49.022;12.148;2023-10-08T03:00:18;13.20;99.90
792;DHT22;379;49.022;12.148;2023-10-08T03:02:46;13.20;99.90
792;DHT22;379;49.022;12.148;2023-10-08T03:05:13;13.20;99.90
792;DHT22;379;49.022;12.148;2023-10-08T03:07:42;13.20;99.90
792;DHT22;379;49.022;12.148;2023-10-08T03:10:10;13.20;99.90
792;DHT22;379;49.022;12.148;2023-10-08T03:12:44;13.10;99.90
792;DHT22;379;49.022;12.148;2023-10-08T03:15:12;13.10;99.90
792;DHT22;379;49.022;12.148;2023-10-08T03:17:54;13.10;99.90
792;DHT22;379;49.022;12.148;2023-10-08T03:20:23;13.10;99.90
792;DHT22;379;49.022;12.148;2023-10-08T03:23:03;13.10;99.90
792;DHT22;379;49.022;12.148;2023-10-08T03:25:32;13.10;99.90
792;DHT22;379;49.022;12.148;2023-10-08T03:28:07;13.10;99.90
792;DHT22;379;49.022;12.148;2023-10-08T03:30:34;13.10;99.90
792;DHT22;379;49.022;12.148;2023-10-08T03:33:15;13.00;99.90
792;DHT22;379;49.022;12.148;2023-10-08T03:35:47;13.00;99.90
792;DHT22;379;49.022;12.148;2023-10-08T03:38:14;12.90;99.90
792;DHT22;379;49.022;12.148;2023-10-08T03:40:54;12.90;99.90
792;DHT22;379;49.022;12.148;2023-10-08T03:43:29;12.80;99.90
792;DHT22;379;49.022;12.148;2023-10-08T03:46:09;12.80;99.90
792;DHT22;379;49.022;12.148;2023-10-08T03:48:42;12.70;99.90
792;DHT22;379;49.022;12.148;2023-10-08T03:51:11;12.60;99.90
792;DHT22;379;49.022;12.148;2023-10-08T03:53:38;12.60;99.90
792;DHT22;379;49.022;12.148;2023-10-08T03:56:23;12.60;99.90
792;DHT22;379;49.022;12.148;2023-10-08T03:58:51;12.50;99.90
792;DHT22;379;49.022;12.148;2023-10-08T04:01:20;12.40;99.90
792;DHT22;379;49.022;12.148;2023-10-08T04:03:51;12.30;99.90
792;DHT22;379;49.022;12.148;2023-10-08T04:06:27;12.30;99.90
792;DHT22;379;49.022;12.148;2023-10-08T04:09:04;12.20;99.90
792;DHT22;379;49.022;12.148;2023-10-08T04:11:42;12.10;99.90
792;DHT22;379;49.022;12.148;2023-10-08T04:14:29;12.10;99.90
792;DHT22;379;49.022;12.148;2023-10-08T04:16:56;11.90;99.90
792;DHT22;379;49.022;12.148;2023-10-08T04:19:25;11.90;99.90
792;DHT22;379;49.022;12.148;2023-10-08T04:21:53;11.80;99.90
792;DHT22;379;49.022;12.148;2023-10-08T04:24:24;11.70;99.90
792;DHT22;379;49.022;12.148;2023-10-08T04:26:57;11.70;99.90
792;DHT22;379;49.022;12.148;2023-10-08T04:29:25;11.60;99.90
792;DHT22;379;49.022;12.148;2023-10-08T04:31:52;11.50;99.90
792;DHT22;379;49.022;12.148;2023-10-08T04:34:28;11.50;99.90
792;DHT22;379;49.022;12.148;2023-10-08T04:36:55;11.30;99.90
792;DHT22;379;49.022;12.148;2023-10-08T04:39:26;11.20;99.90
792;DHT22;379;49.022;12.148;2023-10-08T04:41:57;11.20;99.90
792;DHT22;379;49.022;12.148;2023-10-08T04:44:26;11.20;99.90
792;DHT22;379;49.022;12.148;2023-10-08T04:46:57;11.20;99.90
792;DHT22;379;49.022;12.148;2023-10-08T04:49:31;11.30;99.90
792;DHT22;379;49.022;12.148;2023-10-08T04:52:01;11.40;99.90
792;DHT22;379;49.022;12.148;2023-10-08T04:54:34;11.50;99.90
792;DHT22;379;49.022;12.148;2023-10-08T04:57:06;11.50;99.90
792;DHT22;379;49.022;12.148;2023-10-08T04:59:40;11.50;99.90
792;DHT22;379;49.022;12.148;2023-10-08T05:02:08;11.50;99.90
792;DHT22;379;49.022;12.148;2023-10-08T05:04:48;11.50;99.90
792;DHT22;379;49.022;12.148;2023-10-08T05:07:47;11.60;99.90
792;DHT22;379;49.022;12.148;2023-10-08T05:10:31;11.60;99.90
792;DHT22;379;49.022;12.148;2023-10-08T05:13:10;11.70;99.90
792;DHT22;379;49.022;12.148;2023-10-08T05:15:42;11.80;99.90
792;DHT22;379;49.022;12.148;2023-10-08T05:18:27;11.80;99.90
792;DHT22;379;49.022;12.148;2023-10-08T05:21:15;11.90;99.90
792;DHT22;379;49.022;12.148;2023-10-08T05:23:51;11.90;99.90
792;DHT22;379;49.022;12.148;2023-10-08T05:26:38;12.00;99.90
792;DHT22;379;49.022;12.148;2023-10-08T05:29:14;12.10;99.90
792;DHT22;379;49.022;12.148;2023-10-08T05:32:17;12.20;99.90
792;DHT22;379;49.022;12.148;2023-10-08T05:35:04;12.30;99.90
792;DHT22;379;49.022;12.148;2023-10-08T05:37:46;12.30;99.90
792;DHT22;379;49.022;12.148;2023-10-08T05:40:17;12.40;99.90
792;DHT22;379;49.022;12.148;2023-10-08T05:43:23;12.60;99.90
792;DHT22;379;49.022;12.148;2023-10-08T05:46:12;12.40;99.90
792;DHT22;379;49.022;12.148;2023-10-08T05:49:05;12.40;99.90
792;DHT22;379;49.022;12.148;2023-10-08T05:52:01;12.50;99.90
792;DHT22;379;49.022;12.148;2023-10-08T05:54:51;12.50;99.90
792;DHT22;379;49.022;12.148;2023-10-08T05:57:40;12.50;99.90
792;DHT22;379;49.022;12.148;2023-10-08T06:00:07;12.60;99.90
792;DHT22;379;49.022;12.148;2023-10-08T06:02:51;12.70;99.90
792;DHT22;379;49.022;12.148;2023-10-08T06:05:35;12.70;99.90
792;DHT22;379;49.022;12.148;2023-10-08T06:08:11;12.80;99.90
792;DHT22;379;49.022;12.148;2023-10-08T06:10:41;12.90;99.90
792;DHT22;379;49.022;12.148;2023-10-08T06:13:22;13.00;99.90
792;DHT22;379;49.022;12.148;2023-10-08T06:16:10;13.10;99.90
792;DHT22;379;49.022;12.148;2023-10-08T06:18:39;13.10;99.90
792;DHT22;379;49.022;12.148;2023-10-08T06:21:06;13.20;99.90
792;DHT22;379;49.022;12.148;2023-10-08T06:23:34;13.30;99.90
792;DHT22;379;49.022;12.148;2023-10-08T06:26:03;13.30;99.90
792;DHT22;379;49.022;12.148;2023-10-08T06:28:41;13.40;99.90
792;DHT22;379;49.022;12.148;2023-10-08T06:31:08;13.50;99.90
792;DHT22;379;49.022;12.148;2023-10-08T06:33:42;13.60;99.90
792;DHT22;379;49.022;12.148;2023-10-08T06:36:10;13.60;99.90
792;DHT22;379;49.022;12.148;2023-10-08T06:38:42;13.60;99.90
792;DHT22;379;49.022;12.148;2023-10-08T06:41:12;13.70;99.90
792;DHT22;379;49.022;12.148;2023-10-08T06:43:44;13.80;99.90
792;DHT22;379;49.022;12.148;2023-10-08T06:46:13;14.00;99.90
792;DHT22;379;49.022;12.148;2023-10-08T06:48:41;14.10;99.90
792;DHT22;379;49.022;12.148;2023-10-08T06:51:09;14.10;99.90
792;DHT22;379;49.022;12.148;2023-10-08T06:53:38;14.10;99.90
792;DHT22;379;49.022;12.148;2023-10-08T06:56:05;14.20;99.90
792;DHT22;379;49.022;12.148;2023-10-08T06:58:36;14.30;99.90
792;DHT22;379;49.022;12.148;2023-10-08T07:01:03;14.30;99.90
792;DHT22;379;49.022;12.148;2023-10-08T07:03:31;14.40;99.90
792;DHT22;379;49.022;12.148;2023-10-08T07:05:59;14.50;99.90
792;DHT22;379;49.022;12.148;2023-10-08T07:08:30;14.60;99.90
792;DHT22;379;49.022;12.148;2023-10-08T07:10:59;14.70;99.90
792;DHT22;379;49.022;12.148;2023-10-08T07:13:39;14.80;99.90
792;DHT22;379;49.022;12.148;2023-10-08T07:16:07;14.90;99.90
792;DHT22;379;49.022;12.148;2023-10-08T07:18:36;15.00;99.90
792;DHT22;379;49.022;12.148;2023-10-08T07:21:03;15.00;99.90
792;DHT22;379;49.022;12.148;2023-10-08T07:23:37;15.20;99.90
792;DHT22;379;49.022;12.148;2023-10-08T07:26:21;15.40;99.90
792;DHT22;379;49.022;12.148;2023-10-08T07:28:51;15.50;99.90
792;DHT22;379;49.022;12.148;2023-10-08T07:31:20;15.60;99.90
792;DHT22;379;49.022;12.148;2023-10-08T07:33:48;15.70;99.90
792;DHT22;379;49.022;12.148;2023-10-08T07:36:21;15.80;99.90
792;DHT22;379;49.022;12.148;2023-10-08T07:38:48;15.90;99.90
792;DHT22;379;49.022;12.148;2023-10-08T07:41:15;16.00;99.90
792;DHT22;379;49.022;12.148;2023-10-08T07:43:45;16.00;99.90
792;DHT22;379;49.022;12.148;2023-10-08T07:46:19;16.10;99.90
792;DHT22;379;49.022;12.148;2023-10-08T07:48:46;16.10;99.90
792;DHT22;379;49.022;12.148;2023-10-08T07:51:13;16.20;99.90
792;DHT22;379;49.022;12.148;2023-10-08T07:53:40;16.20;99.90
792;DHT22;379;49.022;12.148;2023-10-08T07:56:08;16.40;99.90
792;DHT22;379;49.022;12.148;2023-10-08T07:58:36;16.50;99.90
792;DHT22;379;49.022;12.148;2023-10-08T08:01:04;16.60;99.90
792;DHT22;379;49.022;12.148;2023-10-08T08:03:34;16.70;99.90
792;DHT22;379;49.022;12.148;2023-10-08T08:06:02;16.80;99.90
792;DHT22;379;49.022;12.148;2023-10-08T08:08:31;17.00;99.90
792;DHT22;379;49.022;12.148;2023-10-08T08:10:59;17.10;99.90
792;DHT22;379;49.022;12.148;2023-10-08T08:13:31;17.30;99.90
792;DHT22;379;49.022;12.148;2023-10-08T08:15:59;17.40;99.90
792;DHT22;379;49.022;12.148;2023-10-08T08:18:36;17.50;99.90
792;DHT22;379;49.022;12.148;2023-10-08T08:21:08;17.70;99.90
792;DHT22;379;49.022;12.148;2023-10-08T08:23:40;17.80;99.90
792;DHT22;379;49.022;12.148;2023-10-08T08:26:06;17.90;99.90
792;DHT22;379;49.022;12.148;2023-10-08T08:28:38;17.90;99.90
792;DHT22;379;49.022;12.148;2023-10-08T08:31:06;17.90;99.90
792;DHT22;379;49.022;12.148;2023-10-08T08:33:40;17.90;99.90
792;DHT22;379;49.022;12.148;2023-10-08T08:36:22;17.90;99.90
792;DHT22;379;49.022;12.148;2023-10-08T08:38:50;18.00;99.90
792;DHT22;379;49.022;12.148;2023-10-08T08:41:17;18.00;99.90
792;DHT22;379;49.022;12.148;2023-10-08T08:43:48;18.20;99.90
792;DHT22;379;49.022;12.148;2023-10-08T08:46:15;18.30;99.90
792;DHT22;379;49.022;12.148;2023-10-08T08:48:44;18.50;99.90
792;DHT22;379;49.022;12.148;2023-10-08T08:51:11;18.60;99.90
792;DHT22;379;49.022;12.148;2023-10-08T08:53:39;18.70;99.90
792;DHT22;379;49.022;12.148;2023-10-08T08:56:07;18.80;99.90
792;DHT22;379;49.022;12.148;2023-10-08T08:58:36;18.80;99.90
792;DHT22;379;49.022;12.148;2023-10-08T09:01:06;19.00;99.90
792;DHT22;379;49.022;12.148;2023-10-08T09:03:33;19.20;99.90
792;DHT22;379;49.022;12.148;2023-10-08T09:06:04;19.30;99.90
792;DHT22;379;49.022;12.148;2023-10-08T09:08:33;19.40;99.90
792;DHT22;379;49.022;12.148;2023-10-08T09:11:00;19.40;99.90
792;DHT22;379;49.022;12.148;2023-10-08T09:13:28;19.50;99.90
792;DHT22;379;49.022;12.148;2023-10-08T09:16:02;19.60;99.90
792;DHT22;379;49.022;12.148;2023-10-08T09:18:31;19.80;99.90
792;DHT22;379;49.022;12.148;2023-10-08T09:21:13;20.00;99.90
792;DHT22;379;49.022;12.148;2023-10-08T09:23:40;20.20;99.90
792;DHT22;379;49.022;12.148;2023-10-08T09:26:13;20.40;99.90
792;DHT22;379;49.022;12.148;2023-10-08T09:28:44;20.70;99.90
792;DHT22;379;49.022;12.148;2023-10-08T09:31:12;20.90;99.90
792;DHT22;379;49.022;12.148;2023-10-08T09:33:39;21.00;99.90
792;DHT22;379;49.022;12.148;2023-10-08T09:36:09;21.10;99.90
792;DHT22;379;49.022;12.148;2023-10-08T09:38:44;21.10;99.90
792;DHT22;379;49.022;12.148;2023-10-08T09:41:14;21.00;99.90
792;DHT22;379;49.022;12.148;2023-10-08T09:43:41;20.80;99.90
792;DHT22;379;49.022;12.148;2023-10-08T09:46:12;20.70;99.90
792;DHT22;379;49.022;12.148;2023-10-08T09:48:41;20.50;99.90
792;DHT22;379;49.022;12.148;2023-10-08T09:51:13;20.30;99.90
792;DHT22;379;49.022;12.148;2023-10-08T09:53:49;20.20;99.90
792;DHT22;379;49.022;12.148;2023-10-08T09:56:18;20.20;99.90
792;DHT22;379;49.022;12.148;2023-10-08T09:58:46;20.20;99.90
792;DHT22;379;49.022;12.148;2023-10-08T10:01:14;20.20;99.90
792;DHT22;379;49.022;12.148;2023-10-08T10:03:43;20.40;99.90
792;DHT22;379;49.022;12.148;2023-10-08T10:06:17;20.50;99.90
792;DHT22;379;49.022;12.148;2023-10-08T10:08:45;20.40;99.90
792;DHT22;379;49.022;12.148;2023-10-08T10:11:15;20.20;99.90
792;DHT22;379;49.022;12.148;2023-10-08T10:13:44;19.90;99.90
792;DHT22;379;49.022;12.148;2023-10-08T10:16:17;19.70;99.90
792;DHT22;379;49.022;12.148;2023-10-08T10:18:44;19.60;99.90
792;DHT22;379;49.022;12.148;2023-10-08T10:21:30;19.50;99.90
792;DHT22;379;49.022;12.148;2023-10-08T10:23:58;19.40;99.90
792;DHT22;379;49.022;12.148;2023-10-08T10:26:26;19.50;99.90
792;DHT22;379;49.022;12.148;2023-10-08T10:29:21;19.60;99.90
792;DHT22;379;49.022;12.148;2023-10-08T10:31:52;19.80;99.90
792;DHT22;379;49.022;12.148;2023-10-08T10:34:21;19.90;99.90
792;DHT22;379;49.022;12.148;2023-10-08T10:36:51;20.10;99.90
792;DHT22;379;49.022;12.148;2023-10-08T10:39:24;20.30;99.90
792;DHT22;379;49.022;12.148;2023-10-08T10:41:57;20.50;99.90
792;DHT22;379;49.022;12.148;2023-10-08T10:44:27;20.60;99.90
792;DHT22;379;49.022;12.148;2023-10-08T10:46:55;20.80;99.90
792;DHT22;379;49.022;12.148;2023-10-08T10:49:48;21.10;99.90
792;DHT22;379;49.022;12.148;2023-10-08T10:52:21;21.20;99.90
792;DHT22;379;49.022;12.148;2023-10-08T10:55:11;21.40;99.90
792;DHT22;379;49.022;12.148;2023-10-08T10:57:49;21.50;99.90
792;DHT22;379;49.022;12.148;2023-10-08T11:00:22;21.50;99.90
792;DHT22;379;49.022;12.148;2023-10-08T11:03:07;21.50;99.90
792;DHT22;379;49.022;12.148;2023-10-08T11:05:42;21.50;99.90
792;DHT22;379;49.022;12.148;2023-10-08T11:08:15;21.50;99.90
792;DHT22;379;49.022;12.148;2023-10-08T11:10:44;21.40;99.90
792;DHT22;379;49.022;12.148;2023-10-08T11:13:16;21.30;99.90
792;DHT22;379;49.022;12.148;2023-10-08T11:15:44;20.90;99.90
792;DHT22;379;49.022;12.148;2023-10-08T11:18:15;20.60;99.90
792;DHT22;379;49.022;12.148;2023-10-08T11:20:43;20.40;99.90
792;DHT22;379;49.022;12.148;2023-10-08T11:23:11;20.40;99.90
792;DHT22;379;49.022;12.148;2023-10-08T11:25:55;20.50;99.90
792;DHT22;379;49.022;12.148;2023-10-08T11:28:25;20.70;99.90
792;DHT22;379;49.022;12.148;2023-10-08T11:30:53;20.90;99.90
792;DHT22;379;49.022;12.148;2023-10-08T11:33:20;21.10;99.90
792;DHT22;379;49.022;12.148;2023-10-08T11:35:57;21.10;99.90
792;DHT22;379;49.022;12.148;2023-10-08T11:38:25;21.20;99.90
792;DHT22;379;49.022;12.148;2023-10-08T11:40:55;21.30;99.90
792;DHT22;379;49.022;12.148;2023-10-08T11:43:23;21.30;99.90
792;DHT22;379;49.022;12.148;2023-10-08T11:45:50;21.40;99.90
792;DHT22;379;49.022;12.148;2023-10-08T11:48:18;21.30;99.90
792;DHT22;379;49.022;12.148;2023-10-08T11:50:51;21.30;99.90
792;DHT22;379;49.022;12.148;2023-10-08T11:53:18;21.40;99.90
792;DHT22;379;49.022;12.148;2023-10-08T11:55:45;21.30;99.90
792;DHT22;379;49.022;12.148;2023-10-08T11:58:14;21.00;99.90
792;DHT22;379;49.022;12.148;2023-10-08T12:00:45;20.80;99.90
792;DHT22;379;49.022;12.148;2023-10-08T12:03:17;20.60;99.90
792;DHT22;379;49.022;12.148;2023-10-08T12:05:44;20.40;99.90
792;DHT22;379;49.022;12.148;2023-10-08T12:08:14;20.10;99.90
792;DHT22;379;49.022;12.148;2023-10-08T12:10:42;19.90;99.90
792;DHT22;379;49.022;12.148;2023-10-08T12:13:11;19.80;99.90
792;DHT22;379;49.022;12.148;2023-10-08T12:15:39;19.60;99.90
792;DHT22;379;49.022;12.148;2023-10-08T12:18:07;19.60;99.90
792;DHT22;379;49.022;12.148;2023-10-08T12:20:41;19.80;99.90
792;DHT22;379;49.022;12.148;2023-10-08T12:23:11;19.90;99.90
792;DHT22;379;49.022;12.148;2023-10-08T12:25:45;20.00;99.90
792;DHT22;379;49.022;12.148;2023-10-08T12:28:16;20.10;99.90
792;DHT22;379;49.022;12.148;2023-10-08T12:30:45;20.30;99.90
792;DHT22;379;49.022;12.148;2023-10-08T12:33:14;20.60;99.90
792;DHT22;379;49.022;12.148;2023-10-08T12:35:42;20.70;99.90
792;DHT22;379;49.022;12.148;2023-10-08T12:38:10;20.80;99.90
792;DHT22;379;49.022;12.148;2023-10-08T12:40:38;20.80;99.90
792;DHT22;379;49.022;12.148;2023-10-08T12:43:18;20.70;99.90
792;DHT22;379;49.022;12.148;2023-10-08T12:45:47;20.50;99.90
792;DHT22;379;49.022;12.148;2023-10-08T12:48:19;20.40;99.90
792;DHT22;379;49.022;12.148;2023-10-08T12:50:46;20.40;99.90
792;DHT22;379;49.022;12.148;2023-10-08T12:53:19;20.60;99.90
792;DHT22;379;49.022;12.148;2023-10-08T12:55:50;20.80;99.90
792;DHT22;379;49.022;12.148;2023-10-08T12:58:19;20.90;99.90
792;DHT22;379;49.022;12.148;2023-10-08T13:00:50;21.30;99.90
792;DHT22;379;49.022;12.148;2023-10-08T13:03:23;21.50;99.90
792;DHT22;379;49.022;12.148;2023-10-08T13:05:50;21.70;99.90
792;DHT22;379;49.022;12.148;2023-10-08T13:08:18;21.80;99.90
792;DHT22;379;49.022;12.148;2023-10-08T13:10:45;22.10;99.90
792;DHT22;379;49.022;12.148;2023-10-08T13:13:12;22.10;99.90
792;DHT22;379;49.022;12.148;2023-10-08T13:15:39;22.10;99.90
792;DHT22;379;49.022;12.148;2023-10-08T13:18:08;22.20;99.90
792;DHT22;379;49.022;12.148;2023-10-08T13:20:35;22.20;99.90
792;DHT22;379;49.022;12.148;2023-10-08T13:23:03;22.40;99.90
792;DHT22;379;49.022;12.148;2023-10-08T13:25:30;22.30;99.90
792;DHT22;379;49.022;12.148;2023-10-08T13:28:01;22.10;99.90
792;DHT22;379;49.022;12.148;2023-10-08T13:30:28;21.90;99.90
792;DHT22;379;49.022;12.148;2023-10-08T13:32:55;21.70;99.90
792;DHT22;379;49.022;12.148;2023-10-08T13:35:23;21.50;99.90
792;DHT22;379;49.022;12.148;2023-10-08T13:37:50;21.40;99.90
792;DHT22;379;49.022;12.148;2023-10-08T13:40:17;21.20;99.90
792;DHT22;379;49.022;12.148;2023-10-08T13:42:44;21.00;99.90
792;DHT22;379;49.022;12.148;2023-10-08T13:45:11;20.90;99.90
792;DHT22;379;49.022;12.148;2023-10-08T13:47:51;20.80;99.90
792;DHT22;379;49.022;12.148;2023-10-08T13:50:18;20.70;99.90
792;DHT22;379;49.022;12.148;2023-10-08T13:52:48;20.60;99.90
792;DHT22;379;49.022;12.148;2023-10-08T13:55:15;20.40;99.90
792;DHT22;379;49.022;12.148;2023-10-08T13:57:44;20.30;99.90
792;DHT22;379;49.022;12.148;2023-10-08T14:00:13;20.30;99.90
792;DHT22;379;49.022;12.148;2023-10-08T14:02:42;20.30;99.90
792;DHT22;379;49.022;12.148;2023-10-08T14:05:10;20.20;99.90
792;DHT22;379;49.022;12.148;2023-10-08T14:07:41;20.10;99.90
792;DHT22;379;49.022;12.148;2023-10-08T14:10:11;20.00;99.90
792;DHT22;379;49.022;12.148;2023-10-08T14:12:44;19.90;99.90
792;DHT22;379;49.022;12.148;2023-10-08T14:15:15;19.90;99.90
792;DHT22;379;49.022;12.148;2023-10-08T14:17:43;19.80;99.90
792;DHT22;379;49.022;12.148;2023-10-08T14:20:13;19.80;99.90
792;DHT22;379;49.022;12.148;2023-10-08T14:22:40;19.70;99.90
792;DHT22;379;49.022;12.148;2023-10-08T14:25:08;19.60;99.90
792;DHT22;379;49.022;12.148;2023-10-08T14:27:39;19.60;99.90
792;DHT22;379;49.022;12.148;2023-10-08T14:30:07;19.50;99.90
792;DHT22;379;49.022;12.148;2023-10-08T14:32:40;19.40;99.90
792;DHT22;379;49.022;12.148;2023-10-08T14:35:11;19.40;99.90
792;DHT22;379;49.022;12.148;2023-10-08T14:37:56;19.50;99.90
792;DHT22;379;49.022;12.148;2023-10-08T14:40:40;19.40;99.90
792;DHT22;379;49.022;12.148;2023-10-08T14:43:26;19.40;99.90
792;DHT22;379;49.022;12.148;2023-10-08T14:45:56;19.20;99.90
792;DHT22;379;49.022;12.148;2023-10-08T14:48:25;19.00;99.90
792;DHT22;379;49.022;12.148;2023-10-08T14:50:54;18.80;99.90
792;DHT22;379;49.022;12.148;2023-10-08T14:53:21;18.50;99.90
792;DHT22;379;49.022;12.148;2023-10-08T14:55:50;18.30;99.90
792;DHT22;379;49.022;12.148;2023-10-08T14:58:17;18.20;99.90
792;DHT22;379;49.022;12.148;2023-10-08T15:00:45;18.00;99.90
792;DHT22;379;49.022;12.148;2023-10-08T15:03:12;17.90;99.90
792;DHT22;379;49.022;12.148;2023-10-08T15:05:39;17.70;99.90
792;DHT22;379;49.022;12.148;2023-10-08T15:08:06;17.60;99.90
792;DHT22;379;49.022;12.148;2023-10-08T15:10:35;17.60;99.90
792;DHT22;379;49.022;12.148;2023-10-08T15:13:02;17.50;99.90
792;DHT22;379;49.022;12.148;2023-10-08T15:15:28;17.50;99.90
792;DHT22;379;49.022;12.148;2023-10-08T15:18:01;17.40;99.90
792;DHT22;379;49.022;12.148;2023-10-08T15:20:28;17.30;99.90
792;DHT22;379;49.022;12.148;2023-10-08T15:22:59;17.20;99.90
792;DHT22;379;49.022;12.148;2023-10-08T15:25:26;17.20;99.90
792;DHT22;379;49.022;12.148;2023-10-08T15:27:52;17.10;99.90
792;DHT22;379;49.022;12.148;2023-10-08T15:30:19;17.10;99.90
792;DHT22;379;49.022;12.148;2023-10-08T15:32:47;17.00;99.90
792;DHT22;379;49.022;12.148;2023-10-08T15:35:17;17.00;99.90
792;DHT22;379;49.022;12.148;2023-10-08T15:37:46;17.00;99.90
792;DHT22;379;49.022;12.148;2023-10-08T15:40:14;17.00;99.90
792;DHT22;379;49.022;12.148;2023-10-08T15:42:47;16.90;99.90
792;DHT22;379;49.022;12.148;2023-10-08T15:45:15;16.90;99.90
792;DHT22;379;49.022;12.148;2023-10-08T15:47:42;16.80;99.90
792;DHT22;379;49.022;12.148;2023-10-08T15:50:09;16.80;99.90
792;DHT22;379;49.022;12.148;2023-10-08T15:52:38;16.70;99.90
792;DHT22;379;49.022;12.148;2023-10-08T15:55:06;16.70;99.90
792;DHT22;379;49.022;12.148;2023-10-08T15:57:34;16.60;99.90
792;DHT22;379;49.022;12.148;2023-10-08T16:00:01;16.60;99.90
792;DHT22;379;49.022;12.148;2023-10-08T16:02:29;16.50;99.90
792;DHT22;379;49.022;12.148;2023-10-08T16:04:56;16.40;99.90
792;DHT22;379;49.022;12.148;2023-10-08T16:07:22;16.40;99.90
792;DHT22;379;49.022;12.148;2023-10-08T16:09:51;16.30;99.90
792;DHT22;379;49.022;12.148;2023-10-08T16:12:17;16.30;99.90
792;DHT22;379;49.022;12.148;2023-10-08T16:14:44;16.20;99.90
792;DHT22;379;49.022;12.148;2023-10-08T16:17:11;16.20;99.90
792;DHT22;379;49.022;12.148;2023-10-08T16:19:38;16.10;99.90
792;DHT22;379;49.022;12.148;2023-10-08T16:22:06;16.00;99.90
792;DHT22;379;49.022;12.148;2023-10-08T16:24:34;16.00;99.90
792;DHT22;379;49.022;12.148;2023-10-08T16:27:02;15.90;99.90
792;DHT22;379;49.022;12.148;2023-10-08T16:29:29;15.80;99.90
792;DHT22;379;49.022;12.148;2023-10-08T16:31:57;15.70;99.90
792;DHT22;379;49.022;12.148;2023-10-08T16:34:24;15.60;99.90
792;DHT22;379;49.022;12.148;2023-10-08T16:36:52;15.50;99.90
792;DHT22;379;49.022;12.148;2023-10-08T16:39:19;15.40;99.90
792;DHT22;379;49.022;12.148;2023-10-08T16:41:50;15.30;99.90
792;DHT22;379;49.022;12.148;2023-10-08T16:44:18;15.20;99.90